createdAt,value
2022-10-21T00:00:31.593Z,17.37
2022-10-21T00:02:58.777Z,16.70
2022-10-21T00:05:25.724Z,16.57
2022-10-21T00:07:52.676Z,17.27
2022-10-21T00:10:19.966Z,17.37
2022-10-21T00:12:46.829Z,17.37
2022-10-21T00:15:13.906Z,17.20
2022-10-21T00:17:43.288Z,18.97
2022-10-21T00:20:12.385Z,16.13
2022-10-21T00:22:39.775Z,16.53
2022-10-21T00:25:07.607Z,17.00
2022-10-21T00:27:35.122Z,16.23
2022-10-21T00:30:04.217Z,15.83
2022-10-21T00:32:31.130Z,16.47
2022-10-21T00:34:58.014Z,16.53
2022-10-21T00:37:25.012Z,15.97
2022-10-21T00:39:52.945Z,15.50
2022-10-21T00:42:22.863Z,16.27
2022-10-21T00:45:08.000Z,15.97
2022-10-21T00:47:49.970Z,15.40
2022-10-21T00:50:44.759Z,15.07
2022-10-21T00:53:14.735Z,15.33
2022-10-21T00:55:51.431Z,17.13
2022-10-21T00:58:21.586Z,14.80
2022-10-21T01:00:50.390Z,15.50
2022-10-21T01:03:17.483Z,15.23
2022-10-21T01:05:45.352Z,15.63
2022-10-21T01:08:12.860Z,15.33
2022-10-21T01:10:40.057Z,16.07
2022-10-21T01:13:41.324Z,15.30
2022-10-21T01:16:44.334Z,15.90
2022-10-21T01:19:56.982Z,14.27
2022-10-21T01:23:12.735Z,14.60
2022-10-21T01:26:12.854Z,13.83
2022-10-21T01:29:17.379Z,14.87
2022-10-21T01:31:59.499Z,14.67
2022-10-21T01:34:52.123Z,14.23
2022-10-21T01:37:53.432Z,14.90
2022-10-21T01:40:53.956Z,13.67
2022-10-21T01:43:37.907Z,14.67
2022-10-21T01:46:35.329Z,13.53
2022-10-21T01:49:10.798Z,14.27
2022-10-21T01:51:38.189Z,14.73
2022-10-21T01:54:22.985Z,17.03
2022-10-21T01:56:50.779Z,16.23
2022-10-21T01:59:19.886Z,16.47
2022-10-21T02:01:48.191Z,17.40
2022-10-21T02:04:16.576Z,15.50
2022-10-21T02:06:43.479Z,15.70
2022-10-21T02:09:10.442Z,15.20
2022-10-21T02:11:39.181Z,16.40
2022-10-21T02:14:17.023Z,15.40
2022-10-21T02:16:45.604Z,14.57
2022-10-21T02:19:19.198Z,14.03
2022-10-21T02:21:48.858Z,14.27
2022-10-21T02:24:29.727Z,14.83
2022-10-21T02:26:56.713Z,13.90
2022-10-21T02:29:29.646Z,14.30
2022-10-21T02:32:08.234Z,15.37
2022-10-21T02:35:13.774Z,15.57
2022-10-21T02:38:06.647Z,13.80
2022-10-21T02:40:36.998Z,13.60
2022-10-21T02:43:16.743Z,15.07
2022-10-21T02:45:47.554Z,12.50
2022-10-21T02:48:14.511Z,13.73
2022-10-21T02:50:41.521Z,14.43
2022-10-21T02:53:10.776Z,13.80
2022-10-21T02:55:37.658Z,14.27
2022-10-21T02:58:04.759Z,13.77
2022-10-21T03:00:32.974Z,12.13
2022-10-21T03:03:00.592Z,14.57
2022-10-21T03:05:27.692Z,13.70
2022-10-21T03:07:54.628Z,13.33
2022-10-21T03:10:21.572Z,12.90
2022-10-21T03:12:50.099Z,13.27
2022-10-21T03:15:17.345Z,13.43
2022-10-21T03:17:44.227Z,12.63
2022-10-21T03:20:11.159Z,12.83
2022-10-21T03:22:38.052Z,13.53
2022-10-21T03:25:06.242Z,13.07
2022-10-21T03:27:33.267Z,13.40
2022-10-21T03:30:00.149Z,12.37
2022-10-21T03:32:27.042Z,13.37
2022-10-21T03:34:53.940Z,13.50
2022-10-21T03:37:20.796Z,13.30
2022-10-21T03:39:47.673Z,12.90
2022-10-21T03:42:14.593Z,12.80
2022-10-21T03:44:41.589Z,11.37
2022-10-21T03:47:08.692Z,12.50
2022-10-21T03:52:07.666Z,11.87
2022-10-21T03:54:34.600Z,12.30
2022-10-21T03:57:01.477Z,12.87
2022-10-21T03:59:28.385Z,12.83
2022-10-21T04:01:55.340Z,13.47
2022-10-21T04:04:22.333Z,12.97
2022-10-21T04:06:49.267Z,11.97
2022-10-21T04:09:16.328Z,12.83
2022-10-21T04:11:43.332Z,12.50
2022-10-21T04:14:13.027Z,12.50
2022-10-21T04:16:42.332Z,12.80
2022-10-21T04:19:12.068Z,12.77
2022-10-21T04:21:38.957Z,13.03
2022-10-21T04:24:06.025Z,13.07
2022-10-21T04:26:32.904Z,13.00
2022-10-21T04:28:59.797Z,13.57
2022-10-21T04:31:31.271Z,12.70
2022-10-21T04:33:59.258Z,13.90
2022-10-21T04:36:26.125Z,13.90
2022-10-21T04:38:53.228Z,17.57
2022-10-21T04:41:20.117Z,17.30
2022-10-21T04:43:46.999Z,16.70
2022-10-21T04:46:15.466Z,15.43
2022-10-21T04:48:42.686Z,16.73
2022-10-21T04:51:09.692Z,14.57
2022-10-21T04:53:36.632Z,14.77
2022-10-21T04:56:04.090Z,14.40
2022-10-21T04:58:31.273Z,12.77
2022-10-21T05:00:58.429Z,12.10
2022-10-21T05:03:25.396Z,13.23
2022-10-21T05:05:53.425Z,11.90
2022-10-21T05:08:21.045Z,11.87
2022-10-21T05:10:48.319Z,12.83
2022-10-21T05:13:15.506Z,12.37
2022-10-21T05:15:42.387Z,12.50
2022-10-21T05:18:09.255Z,11.43
2022-10-21T05:20:36.146Z,12.40
2022-10-21T05:23:03.388Z,12.47
2022-10-21T05:25:33.279Z,11.97
2022-10-21T05:28:01.337Z,11.50
2022-10-21T05:30:28.334Z,12.07
2022-10-21T05:32:55.297Z,11.63
2022-10-21T05:35:22.131Z,12.40
2022-10-21T05:37:49.023Z,12.27
2022-10-21T05:40:16.116Z,12.03
2022-10-21T05:42:43.028Z,12.33
2022-10-21T05:45:10.757Z,11.40
2022-10-21T05:47:40.280Z,11.47
2022-10-21T05:50:09.416Z,12.43
2022-10-21T05:52:36.610Z,12.53
2022-10-21T05:55:04.303Z,10.87
2022-10-21T05:57:38.659Z,12.40
2022-10-21T06:00:07.082Z,11.50
2022-10-21T06:02:34.067Z,12.07
2022-10-21T06:05:00.942Z,12.50
2022-10-21T06:07:27.848Z,11.50
2022-10-21T06:09:55.260Z,11.10
2022-10-21T06:12:22.589Z,11.77
2022-10-21T06:14:49.528Z,10.83
2022-10-21T06:17:16.441Z,12.07
2022-10-21T06:19:45.955Z,11.63
2022-10-21T06:22:15.936Z,11.83
2022-10-21T06:24:42.804Z,13.23
2022-10-21T06:27:09.712Z,12.10
2022-10-21T06:29:36.722Z,11.50
2022-10-21T06:32:03.723Z,11.33
2022-10-21T06:34:30.726Z,12.37
2022-10-21T06:36:57.690Z,11.90
2022-10-21T06:39:24.608Z,11.53
2022-10-21T06:41:51.542Z,11.27
2022-10-21T06:44:38.389Z,11.63
2022-10-21T06:47:05.318Z,11.70
2022-10-21T06:49:32.180Z,10.97
2022-10-21T06:51:59.061Z,11.53
2022-10-21T06:54:26.494Z,11.27
2022-10-21T06:56:53.400Z,10.93
2022-10-21T06:59:20.371Z,10.87
2022-10-21T07:01:59.691Z,11.50
2022-10-21T07:04:27.500Z,10.20
2022-10-21T07:06:54.456Z,9.87
2022-10-21T07:09:21.498Z,10.93
2022-10-21T07:11:48.403Z,10.13
2022-10-21T07:14:15.316Z,10.47
2022-10-21T07:16:42.224Z,10.40
2022-10-21T07:19:10.306Z,10.97
2022-10-21T07:21:37.317Z,11.37
2022-10-21T07:24:04.391Z,12.30
2022-10-21T07:26:33.375Z,11.70
2022-10-21T07:29:01.075Z,11.13
2022-10-21T07:31:31.719Z,10.23
2022-10-21T07:34:01.086Z,11.87
2022-10-21T07:36:32.455Z,11.57
2022-10-21T07:39:05.318Z,11.33
2022-10-21T07:41:38.015Z,12.40
2022-10-21T07:44:06.193Z,10.17
2022-10-21T07:46:34.754Z,11.50
2022-10-21T07:49:01.684Z,10.00
2022-10-21T07:51:31.011Z,11.10
2022-10-21T07:54:00.370Z,10.37
2022-10-21T07:56:38.894Z,10.70
2022-10-21T07:59:11.686Z,9.70
2022-10-21T08:01:44.396Z,10.03
2022-10-21T08:04:15.524Z,10.17
2022-10-21T08:06:43.731Z,9.90
2022-10-21T08:09:10.683Z,11.07
2022-10-21T08:11:37.845Z,8.90
2022-10-21T08:14:07.930Z,9.90
2022-10-21T08:16:36.434Z,9.33
2022-10-21T08:19:05.021Z,9.37
2022-10-21T08:21:32.124Z,9.07
2022-10-21T08:24:02.047Z,9.37
2022-10-21T08:26:31.192Z,9.87
2022-10-21T08:31:30.564Z,10.83
2022-10-21T08:33:58.209Z,9.87
2022-10-21T08:36:26.147Z,9.80
2022-10-21T08:38:54.341Z,9.77
2022-10-21T08:41:30.555Z,9.93
2022-10-21T08:44:22.178Z,9.57
2022-10-21T08:46:59.721Z,10.23
2022-10-21T08:50:06.698Z,9.33
2022-10-21T08:53:02.110Z,9.33
2022-10-21T08:55:36.132Z,9.40
2022-10-21T08:58:04.465Z,10.03
2022-10-21T09:00:58.855Z,9.73
2022-10-21T09:03:54.402Z,9.70
2022-10-21T09:07:24.721Z,10.00
2022-10-21T09:10:04.841Z,8.93
2022-10-21T09:13:00.183Z,8.87
2022-10-21T09:16:28.282Z,10.70
2022-10-21T09:19:32.085Z,9.23
2022-10-21T09:22:35.235Z,9.63
2022-10-21T09:25:23.951Z,9.77
2022-10-21T09:27:56.036Z,8.87
2022-10-21T09:30:24.340Z,10.07
2022-10-21T09:32:58.366Z,10.23
2022-10-21T09:35:37.807Z,9.40
2022-10-21T09:38:10.496Z,9.83
2022-10-21T09:40:37.342Z,8.97
2022-10-21T09:43:05.805Z,9.70
2022-10-21T09:45:38.995Z,9.53
2022-10-21T09:48:17.717Z,9.50
2022-10-21T09:51:00.023Z,9.43
2022-10-21T09:53:54.748Z,10.40
2022-10-21T09:56:50.682Z,8.80
2022-10-21T09:59:21.510Z,9.33
2022-10-21T10:01:49.851Z,8.50
2022-10-21T10:04:35.347Z,8.20
2022-10-21T10:07:30.718Z,8.87
2022-10-21T10:09:57.590Z,8.37
2022-10-21T10:12:27.817Z,9.30
2022-10-21T10:14:55.672Z,8.57
2022-10-21T10:17:39.737Z,9.60
2022-10-21T10:20:14.710Z,8.63
2022-10-21T10:22:43.527Z,9.43
2022-10-21T10:25:21.793Z,9.87
2022-10-21T10:27:57.570Z,10.00
2022-10-21T10:30:42.664Z,9.07
2022-10-21T10:33:31.662Z,9.27
2022-10-21T10:36:05.391Z,8.83
2022-10-21T10:38:42.864Z,8.70
2022-10-21T10:41:17.236Z,8.83
2022-10-21T10:43:55.122Z,8.97
2022-10-21T10:46:34.569Z,8.77
2022-10-21T10:49:35.149Z,9.03
2022-10-21T10:52:21.426Z,8.40
2022-10-21T10:54:49.397Z,9.27
2022-10-21T10:57:34.153Z,8.13
2022-10-21T11:00:21.474Z,8.20
2022-10-21T11:03:05.438Z,8.80
2022-10-21T11:05:51.326Z,8.27
2022-10-21T11:08:56.575Z,7.50
2022-10-21T11:11:45.096Z,8.85
2022-10-21T11:14:18.940Z,8.37
2022-10-21T11:17:06.676Z,8.50
2022-10-21T11:19:49.659Z,9.02
2022-10-21T11:22:45.400Z,8.77
2022-10-21T11:25:42.908Z,8.73
2022-10-21T11:28:26.399Z,8.73
2022-10-21T11:31:43.759Z,9.00
2022-10-21T11:34:48.754Z,8.05
2022-10-21T11:37:28.546Z,8.63
2022-10-21T11:40:38.242Z,8.68
2022-10-21T11:43:57.237Z,10.32
2022-10-21T11:46:44.754Z,11.33
2022-10-21T11:49:50.459Z,8.48
2022-10-21T11:52:44.800Z,7.97
2022-10-21T11:55:45.877Z,8.23
2022-10-21T11:58:36.095Z,7.65
2022-10-21T12:01:38.675Z,8.57
2022-10-21T12:04:31.538Z,8.25
2022-10-21T12:07:13.435Z,8.95
2022-10-21T12:10:13.451Z,8.60
2022-10-21T12:12:46.481Z,8.40
2022-10-21T12:15:29.324Z,9.30
2022-10-21T12:17:57.754Z,9.20
2022-10-21T12:20:27.088Z,8.70
2022-10-21T12:23:04.011Z,8.90
2022-10-21T12:25:45.869Z,8.60
2022-10-21T12:28:18.518Z,8.90
2022-10-21T12:30:58.117Z,8.88
2022-10-21T12:33:44.248Z,8.63
2022-10-21T12:36:45.280Z,7.15
2022-10-21T12:39:33.856Z,9.57
2022-10-21T12:42:18.448Z,8.03
2022-10-21T12:44:48.551Z,8.98
2022-10-21T12:47:32.395Z,8.23
2022-10-21T12:50:14.390Z,8.63
2022-10-21T12:52:42.961Z,8.75
2022-10-21T12:55:25.847Z,8.63
2022-10-21T12:58:03.058Z,8.73
2022-10-21T13:00:29.921Z,8.77
2022-10-21T13:03:14.630Z,8.52
2022-10-21T13:05:41.419Z,8.80
2022-10-21T13:08:23.223Z,7.75
2022-10-21T13:11:05.082Z,7.93
2022-10-21T13:13:43.677Z,8.20
2022-10-21T13:16:19.671Z,8.20
2022-10-21T13:19:17.454Z,7.40
2022-10-21T13:21:47.360Z,7.70
2022-10-21T13:24:23.447Z,7.28
2022-10-21T13:26:55.859Z,7.97
2022-10-21T13:29:26.906Z,7.45
2022-10-21T13:32:17.327Z,8.20
2022-10-21T13:35:19.254Z,8.57
2022-10-21T13:38:20.054Z,8.63
2022-10-21T13:40:53.684Z,8.10
2022-10-21T13:43:35.471Z,8.02
2022-10-21T13:46:19.638Z,9.00
2022-10-21T13:48:48.821Z,8.82
2022-10-21T13:51:26.248Z,8.10
2022-10-21T13:53:59.916Z,9.10
2022-10-21T13:56:34.353Z,8.55
2022-10-21T13:59:02.261Z,7.97
2022-10-21T14:01:46.459Z,7.75
2022-10-21T14:04:17.283Z,8.37
2022-10-21T14:06:51.268Z,8.30
2022-10-21T14:09:28.186Z,8.10
2022-10-21T14:12:05.801Z,7.70
2022-10-21T14:14:36.579Z,7.07
2022-10-21T14:17:13.784Z,8.18
2022-10-21T14:19:41.151Z,7.88
2022-10-21T14:22:10.715Z,7.67
2022-10-21T14:24:47.431Z,8.13
2022-10-21T14:27:19.785Z,8.07
2022-10-21T14:29:47.710Z,8.23
2022-10-21T14:32:18.125Z,8.00
2022-10-21T14:35:06.816Z,8.00
2022-10-21T14:37:44.875Z,7.88
2022-10-21T14:40:24.115Z,8.68
2022-10-21T14:42:53.324Z,8.35
2022-10-21T14:45:30.081Z,10.23
2022-10-21T14:48:15.009Z,12.20
2022-10-21T14:50:43.429Z,13.35
2022-10-21T14:53:17.796Z,12.05
2022-10-21T14:55:46.255Z,11.57
2022-10-21T14:58:29.304Z,12.63
2022-10-21T15:00:59.961Z,14.60
2022-10-21T15:03:43.236Z,11.27
2022-10-21T15:06:37.433Z,10.25
2022-10-21T15:09:10.419Z,11.05
2022-10-21T15:11:41.695Z,11.98
2022-10-21T15:14:28.764Z,10.50
2022-10-21T15:17:04.158Z,10.77
2022-10-21T15:20:02.394Z,9.88
2022-10-21T15:22:34.227Z,9.73
2022-10-21T15:25:09.273Z,8.82
2022-10-21T15:27:42.502Z,9.32
2022-10-21T15:30:21.975Z,12.13
2022-10-21T15:32:50.285Z,9.52
2022-10-21T15:35:22.575Z,10.48
2022-10-21T15:37:51.617Z,10.80
2022-10-21T15:40:20.215Z,12.35
2022-10-21T15:42:48.116Z,13.82
2022-10-21T15:45:23.088Z,15.18
2022-10-21T15:47:54.919Z,16.98
2022-10-21T15:50:25.829Z,16.98
2022-10-21T15:52:53.476Z,18.88
2022-10-21T15:55:20.399Z,15.27
2022-10-21T15:57:47.394Z,15.27
2022-10-21T16:00:23.822Z,14.75
2022-10-21T16:02:51.915Z,14.75
2022-10-21T16:05:21.304Z,15.57
2022-10-21T16:07:48.171Z,13.25
2022-10-21T16:10:29.597Z,11.13
2022-10-21T16:12:57.696Z,12.07
2022-10-21T16:15:25.755Z,11.10
2022-10-21T16:17:56.738Z,10.98
2022-10-21T16:20:30.142Z,10.85
2022-10-21T16:23:01.952Z,12.63
2022-10-21T16:25:31.030Z,12.52
2022-10-21T16:27:57.951Z,11.73
2022-10-21T16:30:29.654Z,11.38
2022-10-21T16:32:57.346Z,10.75
2022-10-21T16:35:24.605Z,10.57
2022-10-21T16:37:52.123Z,12.15
2022-10-21T16:40:28.954Z,12.02
2022-10-21T16:42:55.989Z,12.30
2022-10-21T16:45:28.685Z,13.43
2022-10-21T16:47:58.145Z,14.32
2022-10-21T16:50:40.509Z,15.20
2022-10-21T16:53:13.917Z,15.05
2022-10-21T16:55:40.887Z,13.88
2022-10-21T16:58:08.071Z,15.27
2022-10-21T17:00:35.859Z,14.65
2022-10-21T17:03:02.955Z,15.07
2022-10-21T17:05:30.019Z,15.07
2022-10-21T17:07:58.597Z,16.43
2022-10-21T17:10:25.625Z,15.45
2022-10-21T17:12:58.669Z,14.95
2022-10-21T17:15:26.855Z,16.63
2022-10-21T17:17:54.083Z,15.10
2022-10-21T17:20:21.059Z,16.38
2022-10-21T17:22:47.950Z,16.92
2022-10-21T17:25:14.838Z,15.07
2022-10-21T17:27:41.994Z,16.10
2022-10-21T17:30:10.249Z,15.75
2022-10-21T17:32:37.194Z,15.20
2022-10-21T17:35:04.288Z,16.17
2022-10-21T17:37:31.231Z,16.40
2022-10-21T17:39:58.172Z,21.50
2022-10-21T17:42:25.039Z,20.77
2022-10-21T17:44:52.752Z,24.27
2022-10-21T17:47:19.654Z,24.90
2022-10-21T17:49:46.534Z,22.30
2022-10-21T17:52:13.509Z,22.03
2022-10-21T17:54:40.427Z,18.83
2022-10-21T17:57:07.310Z,18.27
2022-10-21T17:59:34.263Z,17.38
2022-10-21T18:02:01.188Z,17.80
2022-10-21T18:04:28.695Z,18.23
2022-10-21T18:06:55.553Z,18.53
2022-10-21T18:09:22.537Z,17.67
2022-10-21T18:11:49.541Z,18.33
2022-10-21T18:14:16.562Z,20.03
2022-10-21T18:16:43.486Z,19.45
2022-10-21T18:19:10.462Z,19.80
2022-10-21T18:21:37.523Z,18.43
2022-10-21T18:24:07.459Z,20.57
2022-10-21T18:26:37.092Z,19.93
2022-10-21T18:29:05.109Z,22.03
2022-10-21T18:31:35.183Z,23.57
2022-10-21T18:34:04.980Z,22.00
2022-10-21T18:36:32.269Z,23.20
2022-10-21T18:39:00.193Z,23.80
2022-10-21T18:41:28.046Z,20.92
2022-10-21T18:44:00.325Z,20.77
2022-10-21T18:46:28.962Z,20.23
2022-10-21T18:48:55.944Z,21.73
2022-10-21T18:51:23.982Z,22.60
2022-10-21T18:53:52.996Z,23.40
2022-10-21T18:56:23.667Z,24.53
2022-10-21T18:58:51.664Z,25.50
2022-10-21T19:01:21.052Z,26.97
2022-10-21T19:03:50.750Z,24.00
2022-10-21T19:06:55.187Z,22.27
2022-10-21T19:09:25.887Z,22.83
2022-10-21T19:11:53.881Z,23.77
2022-10-21T19:14:21.155Z,22.90
2022-10-21T19:16:49.042Z,22.20
2022-10-21T19:19:17.135Z,23.77
2022-10-21T19:21:44.037Z,24.27
2022-10-21T19:24:11.041Z,22.97
2022-10-21T19:26:40.490Z,21.17
2022-10-21T19:29:16.155Z,20.67
2022-10-21T19:31:44.756Z,19.57
2022-10-21T19:34:22.562Z,21.57
2022-10-21T19:36:50.132Z,21.90
2022-10-21T19:39:17.140Z,22.40
2022-10-21T19:41:44.309Z,27.60
2022-10-21T19:44:11.192Z,30.10
2022-10-21T19:46:39.291Z,34.10
2022-10-21T19:49:08.749Z,33.57
2022-10-21T19:51:36.818Z,33.80
2022-10-21T19:54:08.908Z,34.93
2022-10-21T19:56:35.886Z,32.70
2022-10-21T19:59:03.547Z,31.60
2022-10-21T20:01:31.760Z,28.80
2022-10-21T20:04:01.442Z,28.23
2022-10-21T20:06:32.040Z,31.00
2022-10-21T20:09:03.316Z,31.47
2022-10-21T20:11:30.611Z,32.63
2022-10-21T20:13:57.600Z,29.20
2022-10-21T20:16:37.230Z,25.73
2022-10-21T20:19:06.078Z,26.80
2022-10-21T20:21:35.270Z,24.97
2022-10-21T20:24:02.209Z,24.27
2022-10-21T20:26:29.462Z,23.23
2022-10-21T20:28:56.857Z,21.60
2022-10-21T20:31:23.737Z,18.47
2022-10-21T20:33:52.004Z,20.40
2022-10-21T20:36:28.755Z,18.73
2022-10-21T20:38:57.591Z,18.95
2022-10-21T20:41:33.910Z,18.17
2022-10-21T20:44:02.495Z,24.73
2022-10-21T20:46:38.074Z,24.47
2022-10-21T20:49:06.788Z,24.00
2022-10-21T20:51:34.594Z,23.10
2022-10-21T20:54:14.708Z,24.30
2022-10-21T20:56:42.615Z,21.40
2022-10-21T20:59:15.400Z,21.43
2022-10-21T21:01:45.614Z,22.37
2022-10-21T21:04:15.753Z,21.07
2022-10-21T21:06:45.817Z,18.55
2022-10-21T21:12:03.769Z,18.63
2022-10-21T21:14:31.396Z,19.20
2022-10-21T21:16:58.331Z,17.53
2022-10-21T21:19:25.824Z,17.53
2022-10-21T21:21:53.361Z,17.03
2022-10-21T21:24:20.240Z,17.63
2022-10-21T21:26:47.127Z,16.97
2022-10-21T21:29:14.329Z,16.57
2022-10-21T21:31:42.095Z,17.60
2022-10-21T21:34:09.886Z,17.83
2022-10-21T21:36:37.353Z,18.90
2022-10-21T21:39:06.608Z,18.90
2022-10-21T21:41:34.828Z,18.33
2022-10-21T21:44:01.764Z,18.40
2022-10-21T21:46:28.686Z,17.60
2022-10-21T21:49:05.085Z,17.77
2022-10-21T21:51:35.490Z,18.33
2022-10-21T21:54:04.357Z,18.73
2022-10-21T21:56:31.250Z,19.60
2022-10-21T21:58:58.618Z,19.33
2022-10-21T22:01:29.710Z,17.43
2022-10-21T22:03:57.737Z,17.37
2022-10-21T22:06:28.959Z,15.80
2022-10-21T22:08:56.470Z,16.20
2022-10-21T22:11:26.073Z,15.77
2022-10-21T22:13:53.481Z,16.37
2022-10-21T22:16:22.168Z,17.93
2022-10-21T22:18:49.263Z,17.23
2022-10-21T22:21:18.224Z,17.40
2022-10-21T22:23:46.998Z,16.45
2022-10-21T22:26:15.354Z,16.93
2022-10-21T22:28:42.775Z,17.37
2022-10-21T22:31:15.711Z,16.83
2022-10-21T22:36:16.605Z,15.97
2022-10-21T22:38:44.837Z,15.90
2022-10-21T22:41:12.940Z,16.70
2022-10-21T22:43:40.239Z,16.83
2022-10-21T22:46:21.648Z,18.03
2022-10-21T22:48:54.053Z,16.10
2022-10-21T22:51:21.546Z,16.63
2022-10-21T22:53:53.460Z,17.03
2022-10-21T22:56:24.518Z,17.37
2022-10-21T22:58:51.450Z,16.50
2022-10-21T23:01:18.309Z,16.77
2022-10-21T23:03:45.209Z,16.20
2022-10-21T23:06:12.094Z,17.05
2022-10-21T23:08:39.178Z,16.63
2022-10-21T23:11:06.145Z,16.37
2022-10-21T23:13:33.174Z,16.23
2022-10-21T23:16:00.065Z,16.73
2022-10-21T23:18:26.987Z,17.10
2022-10-21T23:20:53.905Z,16.00
2022-10-21T23:23:20.775Z,16.10
2022-10-21T23:25:47.694Z,17.17
2022-10-21T23:28:14.642Z,16.60
2022-10-21T23:30:43.256Z,16.53
2022-10-21T23:33:10.648Z,15.18
2022-10-21T23:35:37.513Z,15.90
2022-10-21T23:38:04.640Z,16.67
2022-10-21T23:40:31.544Z,15.83
2022-10-21T23:42:58.524Z,15.87
2022-10-21T23:45:25.442Z,16.63
2022-10-21T23:47:52.337Z,15.60
2022-10-21T23:50:19.255Z,16.23
2022-10-21T23:52:46.148Z,16.13
2022-10-21T23:55:13.224Z,16.13
2022-10-21T23:57:40.219Z,15.60
